Orbital elements of FENGYUN 1C DEB
| Launched | 9 May 1999 |
| Flight ended | – |
| Launch site | Taiyuan Space Center, PRC |
| Owner | People's Republic of China |
| NORAD ID | 31426 |
| Date fetched |
Epoch osculation |
Inc. [°] |
Ecc. | RA asc node [hr] |
Arg Peri. [°] |
Mean anom [°] |
Mean motion [rev/day] |
Abs. mag |
| Date fetched |
Epoch osculation |
Inc. [°] |
Ecc. | RA asc node [hr] |
Arg Peri. [°] |
Mean anom [°] |
Mean motion [rev/day] |
Abs. mag |
| 2026 May 07 17:58 | 2026 May 05 05:46:15 | 98.5948 | 0.03236 | 18.4834 | 150.0153 | 334.0924 | 13.91044 | – |
| 2026 May 06 17:57 | 2026 May 05 05:46:15 | 98.5948 | 0.03236 | 18.4834 | 150.0153 | 334.0924 | 13.91044 | – |
| 2026 May 05 17:57 | 2026 May 05 05:46:15 | 98.5948 | 0.03236 | 18.4834 | 150.0153 | 334.0924 | 13.91044 | – |
| 2026 May 04 17:57 | 2026 Apr 29 09:38:47 | 98.5928 | 0.03236 | 18.1225 | 166.0717 | 334.0924 | 13.91044 | – |
| 2026 May 03 17:57 | 2026 Apr 29 09:38:47 | 98.5928 | 0.03236 | 18.1225 | 166.0717 | 334.0924 | 13.91044 | – |
| 2026 May 02 17:57 | 2026 Apr 29 09:38:47 | 98.5928 | 0.03236 | 18.1225 | 166.0717 | 334.0924 | 13.91044 | – |
| 2026 May 01 17:56 | 2026 Apr 29 09:38:47 | 98.5928 | 0.03236 | 18.1225 | 166.0717 | 334.0924 | 13.91044 | – |
| 2026 Apr 30 17:56 | 2026 Apr 29 09:38:47 | 98.5928 | 0.03236 | 18.1225 | 166.0717 | 334.0924 | 13.91044 | – |
| 2026 Apr 29 17:57 | 2026 Apr 20 16:33:01 | 98.5919 | 0.03233 | 17.5838 | 190.0132 | 334.0924 | 13.91044 | – |
| 2026 Apr 28 17:56 | 2026 Apr 20 16:33:01 | 98.5919 | 0.03233 | 17.5838 | 190.0132 | 334.0924 | 13.91044 | – |
| 2026 Apr 27 17:58 | 2026 Apr 20 16:33:01 | 98.5919 | 0.03233 | 17.5838 | 190.0132 | 334.0924 | 13.91044 | – |
| 2026 Apr 26 17:58 | 2026 Apr 20 16:33:01 | 98.5919 | 0.03233 | 17.5838 | 190.0132 | 334.0924 | 13.91044 | – |
| 2026 Apr 25 17:58 | 2026 Apr 20 16:33:01 | 98.5919 | 0.03233 | 17.5838 | 190.0132 | 334.0924 | 13.91044 | – |
| 2026 Apr 24 17:59 | 2026 Apr 20 16:33:01 | 98.5919 | 0.03233 | 17.5838 | 190.0132 | 334.0924 | 13.91044 | – |
| 2026 Apr 23 17:57 | 2026 Apr 19 05:01:53 | 98.5921 | 0.03232 | 17.4923 | 194.0727 | 334.0924 | 13.91044 | – |
| 2026 Apr 22 17:57 | 2026 Apr 19 05:01:53 | 98.5921 | 0.03232 | 17.4923 | 194.0727 | 334.0924 | 13.91044 | – |
| 2026 Apr 21 17:57 | 2026 Apr 19 05:01:53 | 98.5921 | 0.03232 | 17.4923 | 194.0727 | 334.0924 | 13.91044 | – |
| 2026 Apr 20 17:57 | 2026 Apr 19 05:01:53 | 98.5921 | 0.03232 | 17.4923 | 194.0727 | 334.0924 | 13.91044 | – |
| 2026 Apr 19 17:58 | 2026 Apr 19 05:01:53 | 98.5921 | 0.03232 | 17.4923 | 194.0727 | 334.0924 | 13.91044 | – |
| 2026 Apr 18 17:56 | 2026 Apr 12 21:02:56 | 98.5902 | 0.03228 | 17.1008 | 211.5144 | 334.0924 | 13.91044 | – |
| 2026 Apr 16 17:57 | 2026 Apr 12 21:02:56 | 98.5902 | 0.03228 | 17.1008 | 211.5144 | 334.0924 | 13.91044 | – |
| 2026 Apr 14 17:57 | 2026 Apr 12 21:02:56 | 98.5902 | 0.03228 | 17.1008 | 211.5144 | 334.0924 | 13.91044 | – |
| 2026 Apr 13 17:57 | 2026 Apr 12 21:02:56 | 98.5902 | 0.03228 | 17.1008 | 211.5144 | 334.0924 | 13.91044 | – |
| 2026 Apr 12 17:57 | 2026 Apr 08 16:13:00 | 98.5909 | 0.03225 | 16.8411 | 223.0995 | 334.0924 | 13.91044 | – |
| 2026 Apr 11 17:57 | 2026 Apr 08 16:13:00 | 98.5909 | 0.03225 | 16.8411 | 223.0995 | 334.0924 | 13.91044 | – |
| 2026 Apr 10 17:58 | 2026 Apr 08 16:13:00 | 98.5909 | 0.03225 | 16.8411 | 223.0995 | 334.0924 | 13.91044 | – |